KPMU/PMU METAR and TAF weather

Enter ICAO airport designator
Station Type Date Time Source
KPMU METAR 2019/06/20 06:55 UTC NOAA

KPMU 200655Z AUTO 00000KT BKN005 BKN010 BKN120 22/21 A2975 RMK AO2 P0002


Station Type Date Time Source
KPMU Decoded METAR 2019/06/20 06:55 UTC NOAA

Station name not available
Jun 20, 2019 - 02:55 AM EDT / 2019.06.20 0655 UTC
Wind: Calm:0
Sky conditions: mostly cloudy
Precipitation last hour: 0.02 inches
Temperature: 71 F (22 C)
Dew Point: 69 F (21 C)
Relative Humidity: 94%
Pressure (altimeter): 29.75 in. Hg (1007 hPa)
ob: KPMU 200655Z AUTO 00000KT BKN005 BKN010 BKN120 22/21 A2975 RMK AO2 P0002
cycle: 7

Station Type Date Time Source
KPMU TAF UTC NOAA

Error!

Example: see airport list